Saxaren — SKHW — position and weather

sailwx.info

Track history (hours):
 
Tides and Currents Weather Stations Pressure Air Temp Water Temp Dewpoint Dewpoint Depression Visibility Wind Speed Wind Dir Waves Ship Positions

Saxaren

Last reported at 2016-Aug-23 16:31 UTC. Time now 2016-Aug-24 01:32 UTC.
Position N 59°23' E 018°26'.

Length 38 m; draft 1.8 m.

Type: Passenger vessel. MMSI: 265512110.

Date/timePositionNaut miles runAvg speedWind from/ knotsBaromVisibWave heightAir tempDewpointWater temp
2016-Aug-23 16:31N 59°23' E 018°26'2 2.0
2016-Aug-23 15:33N 59°23' E 018°22'9 9.5
2016-Aug-23 14:33N 59°19' E 018°05'0 0.3
2016-Aug-23 13:34N 59°20' E 018°05'0 0.0
2016-Aug-23 12:33N 59°20' E 018°04'0 0.0
2016-Aug-23 11:33N 59°20' E 018°04'0 0.0
2016-Aug-23 10:34N 59°20' E 018°05'0 0.0
2016-Aug-23 09:33N 59°20' E 018°05'0 0.0
2016-Aug-23 08:33N 59°20' E 018°05'0 0.0
2016-Aug-23 07:34N 59°20' E 018°04'0 0.0
2016-Aug-23 06:33N 59°20' E 018°04'7 6.7
2016-Aug-23 05:33N 59°22' E 018°17'3 2.7
2016-Aug-23 04:21N 59°24' E 018°21'0 0.0
2016-Aug-23 02:23N 59°24' E 018°21'0 0.0
2016-Aug-23 01:22N 59°24' E 018°21'0 0.0
2016-Aug-23 00:30N 59°24' E 018°21'0 0.0
2016-Aug-22 23:27N 59°24' E 018°21'0 0.0
2016-Aug-22 17:14N 59°24' E 018°21'3 3.5
2016-Aug-22 16:27N 59°23' E 018°26'3 3.2
2016-Aug-22 15:33N 59°23' E 018°21'9 9.0
2016-Aug-22 14:33N 59°19' E 018°05'0 0.3
2016-Aug-22 13:34N 59°20' E 018°05'0 0.0
2016-Aug-22 12:33N 59°20' E 018°05'0 0.0
2016-Aug-22 11:34N 59°20' E 018°05'0 0.0
2016-Aug-22 10:34N 59°20' E 018°05'0 0.0
2016-Aug-22 09:34N 59°20' E 018°05'0 0.0
2016-Aug-22 08:34N 59°20' E 018°05'0 0.0
2016-Aug-22 07:34N 59°20' E 018°05'0 0.0
2016-Aug-22 06:34N 59°20' E 018°05'7 6.7
2016-Aug-22 05:33N 59°22' E 018°17'3 2.9
2016-Aug-22 04:25N 59°24' E 018°22'0 0.3
2016-Aug-22 03:18N 59°24' E 018°21'0 0.0
2016-Aug-22 02:16N 59°24' E 018°21'0 0.0
2016-Aug-21 23:17N 59°24' E 018°21'0 0.0
2016-Aug-21 20:15N 59°24' E 018°21'1013.7
2016-Aug-21 19:34N 59°19' E 018°05'9 8.6
2016-Aug-21 18:33N 59°23' E 018°20'3 0.7
2016-Aug-21 13:33N 59°21' E 018°14'5 5.2
2016-Aug-21 12:33N 59°20' E 018°05'4 4.4
2016-Aug-21 11:33N 59°20' E 018°13'1 0.4
2016-Aug-21 08:33N 59°21' E 018°14'5 5.2
2016-Aug-21 07:33N 59°20' E 018°05'0 0.0
2016-Aug-21 06:33N 59°20' E 018°05'0 0.0
2016-Aug-21 05:33N 59°20' E 018°05'0 0.0
2016-Aug-21 04:33N 59°20' E 018°05'0 0.0
2016-Aug-21 03:33N 59°20' E 018°05'0 0.0
2016-Aug-21 02:33N 59°20' E 018°05'0 0.0
2016-Aug-21 01:33N 59°20' E 018°05'0 0.0
2016-Aug-21 00:33N 59°20' E 018°05'0 0.0
2016-Aug-20 23:33N 59°20' E 018°05'0 0.0
2016-Aug-20 22:33N 59°20' E 018°05'0 0.0
2016-Aug-20 21:33N 59°20' E 018°05'0 0.0
2016-Aug-20 20:33N 59°20' E 018°05'0 0.0
2016-Aug-20 19:33N 59°20' E 018°05'2 1.8
2016-Aug-20 18:33N 59°19' E 018°08'8 1.4
2016-Aug-20 12:19N 59°24' E 018°21'5 6.2
2016-Aug-20 11:33N 59°21' E 018°15'5 5.3
2016-Aug-20 10:33N 59°20' E 018°04'0 0.0
2016-Aug-20 09:33N 59°20' E 018°04'7 6.9
2016-Aug-20 08:33N 59°22' E 018°18'2 0.1
2016-Aug-19 16:34N 59°21' E 018°15'5 5.4
2016-Aug-19 15:33N 59°20' E 018°05'0 0.0
2016-Aug-19 14:33N 59°20' E 018°05'4 3.8
2016-Aug-19 13:33N 59°20' E 018°12'5 0.8
2016-Aug-19 07:16N 59°23' E 018°20'912.0
2016-Aug-19 06:34N 59°19' E 018°05'0 0.4
2016-Aug-19 05:33N 59°20' E 018°04'0 0.0
2016-Aug-19 04:33N 59°20' E 018°04'0 0.0
2016-Aug-19 03:33N 59°20' E 018°04'0 0.0
2016-Aug-19 02:33N 59°20' E 018°04'0 0.0
2016-Aug-19 01:33N 59°20' E 018°04'0 0.0
2016-Aug-19 00:33N 59°20' E 018°04'0 0.0
2016-Aug-18 23:33N 59°20' E 018°05'0 0.0
2016-Aug-18 22:33N 59°20' E 018°05'0 0.0
2016-Aug-18 21:33N 59°20' E 018°04'0 0.0
2016-Aug-18 20:34N 59°20' E 018°05'0 0.0
2016-Aug-18 19:33N 59°20' E 018°05'0 0.0
2016-Aug-18 18:33N 59°20' E 018°05'0 0.0
2016-Aug-18 17:33N 59°20' E 018°05'3 0.3
2016-Aug-18 07:05N 59°20' E 018°11'3 6.5
2016-Aug-18 06:33N 59°20' E 018°05'0 0.0
2016-Aug-18 05:33N 59°20' E 018°05'0 0.0
2016-Aug-18 04:34N 59°20' E 018°04'0 0.0
2016-Aug-18 03:34N 59°20' E 018°04'0 0.0
2016-Aug-18 02:33N 59°20' E 018°05'0 0.0
2016-Aug-18 01:34N 59°20' E 018°05'0 0.0
2016-Aug-18 00:33N 59°20' E 018°04'0 0.0
2016-Aug-17 23:34N 59°20' E 018°05'0 0.0
2016-Aug-17 22:34N 59°20' E 018°04'0 0.0
2016-Aug-17 21:33N 59°20' E 018°05'0 0.0
2016-Aug-17 20:34N 59°20' E 018°05'0 0.0
2016-Aug-17 19:33N 59°20' E 018°05'0 0.0
2016-Aug-17 18:34N 59°20' E 018°05'0 0.0
2016-Aug-17 17:33N 59°20' E 018°04'4 0.3
2016-Aug-17 07:06N 59°20' E 018°11'4 6.5
2016-Aug-17 06:33N 59°20' E 018°04'0 0.0
2016-Aug-17 05:33N 59°20' E 018°04'0 0.0
2016-Aug-17 04:34N 59°20' E 018°04'0 0.0
2016-Aug-17 03:34N 59°20' E 018°05'0 0.0
2016-Aug-17 02:33N 59°20' E 018°05'0 0.0
2016-Aug-17 01:33N 59°20' E 018°05'0 0.0
2016-Aug-17 00:33N 59°20' E 018°05'0 0.0
2016-Aug-16 23:33N 59°20' E 018°04'0 0.0
2016-Aug-16 22:33N 59°20' E 018°05'0 0.0
2016-Aug-16 21:33N 59°20' E 018°04'0 0.0
2016-Aug-16 20:33N 59°20' E 018°05'0 0.0
2016-Aug-16 19:34N 59°20' E 018°04'0 0.0
2016-Aug-16 18:33N 59°20' E 018°05'0 0.0
2016-Aug-16 17:33N 59°20' E 018°05'4 0.4
2016-Aug-16 07:12N 59°20' E 018°12'4 1.5
2016-Aug-16 04:34N 59°20' E 018°04'0 0.0
2016-Aug-16 03:33N 59°20' E 018°05'0 0.0
2016-Aug-16 02:33N 59°20' E 018°05'0 0.0
2016-Aug-16 01:33N 59°20' E 018°05'0 0.0
2016-Aug-16 00:33N 59°20' E 018°05'0 0.0
2016-Aug-15 23:33N 59°20' E 018°04'0 0.0
2016-Aug-15 22:33N 59°20' E 018°04'0 0.0
2016-Aug-15 21:33N 59°20' E 018°05'0 0.0
2016-Aug-15 20:33N 59°20' E 018°05'0 0.0
2016-Aug-15 19:33N 59°20' E 018°05'0 0.0
2016-Aug-15 18:33N 59°20' E 018°04'0 0.0
2016-Aug-15 17:33N 59°20' E 018°04'4 0.4
2016-Aug-15 07:08N 59°20' E 018°12'4 6.6
2016-Aug-15 06:34N 59°20' E 018°05'4 0.2
2016-Aug-14 15:08N 59°20' E 018°12'4 6.4
2016-Aug-14 14:33N 59°20' E 018°05'4 0.6
2016-Aug-14 07:23N 59°20' E 018°12'4 4.9
2016-Aug-14 06:34N 59°20' E 018°05'0 0.0
2016-Aug-14 04:34N 59°20' E 018°05'0 0.0
2016-Aug-14 03:34N 59°20' E 018°05'0 0.0
2016-Aug-14 02:34N 59°20' E 018°05'0 0.0
2016-Aug-14 01:32N 59°20' E 018°05'0 0.0
2016-Aug-14 00:34N 59°20' E 018°05'0 0.0
2016-Aug-13 23:32N 59°20' E 018°05'0 0.0
2016-Aug-13 22:34N 59°20' E 018°05'0 0.0
2016-Aug-13 21:34N 59°20' E 018°05'0 0.0
2016-Aug-13 20:34N 59°20' E 018°05'0 0.0
2016-Aug-13 19:33N 59°20' E 018°05'3 2.7
2016-Aug-13 18:25N 59°20' E 018°11'  
Track history (hours):
 
Tides and Currents Weather Stations Pressure Air Temp Water Temp Dewpoint Dewpoint Depression Visibility Wind Speed Wind Dir Waves Ship Positions

Saxaren

Last reported at 2016-Aug-23 16:31 UTC. Time now 2016-Aug-24 01:32 UTC.
Position N 59°23' E 018°26'.

Length 38 m; draft 1.8 m.

Type: Passenger vessel. MMSI: 265512110.

Date/timePositionNaut miles runAvg speedWind from/ knotsBaromVisibWave heightAir tempDewpointWater temp
2016-Aug-23 16:31N 59°23' E 018°26'2 2.0
2016-Aug-23 15:33N 59°23' E 018°22'9 9.5
2016-Aug-23 14:33N 59°19' E 018°05'0 0.3
2016-Aug-23 13:34N 59°20' E 018°05'0 0.0
2016-Aug-23 12:33N 59°20' E 018°04'0 0.0
2016-Aug-23 11:33N 59°20' E 018°04'0 0.0
2016-Aug-23 10:34N 59°20' E 018°05'0 0.0
2016-Aug-23 09:33N 59°20' E 018°05'0 0.0
2016-Aug-23 08:33N 59°20' E 018°05'0 0.0
2016-Aug-23 07:34N 59°20' E 018°04'0 0.0
2016-Aug-23 06:33N 59°20' E 018°04'7 6.7
2016-Aug-23 05:33N 59°22' E 018°17'3 2.7
2016-Aug-23 04:21N 59°24' E 018°21'0 0.0
2016-Aug-23 02:23N 59°24' E 018°21'0 0.0
2016-Aug-23 01:22N 59°24' E 018°21'0 0.0
2016-Aug-23 00:30N 59°24' E 018°21'0 0.0
2016-Aug-22 23:27N 59°24' E 018°21'0 0.0
2016-Aug-22 17:14N 59°24' E 018°21'3 3.5
2016-Aug-22 16:27N 59°23' E 018°26'3 3.2
2016-Aug-22 15:33N 59°23' E 018°21'9 9.0
2016-Aug-22 14:33N 59°19' E 018°05'0 0.3
2016-Aug-22 13:34N 59°20' E 018°05'0 0.0
2016-Aug-22 12:33N 59°20' E 018°05'0 0.0
2016-Aug-22 11:34N 59°20' E 018°05'0 0.0
2016-Aug-22 10:34N 59°20' E 018°05'0 0.0
2016-Aug-22 09:34N 59°20' E 018°05'0 0.0
2016-Aug-22 08:34N 59°20' E 018°05'0 0.0
2016-Aug-22 07:34N 59°20' E 018°05'0 0.0
2016-Aug-22 06:34N 59°20' E 018°05'7 6.7
2016-Aug-22 05:33N 59°22' E 018°17'3 2.9
2016-Aug-22 04:25N 59°24' E 018°22'0 0.3
2016-Aug-22 03:18N 59°24' E 018°21'0 0.0
2016-Aug-22 02:16N 59°24' E 018°21'0 0.0
2016-Aug-21 23:17N 59°24' E 018°21'0 0.0
2016-Aug-21 20:15N 59°24' E 018°21'1013.7
2016-Aug-21 19:34N 59°19' E 018°05'9 8.6
2016-Aug-21 18:33N 59°23' E 018°20'3 0.7
2016-Aug-21 13:33N 59°21' E 018°14'5 5.2
2016-Aug-21 12:33N 59°20' E 018°05'4 4.4
2016-Aug-21 11:33N 59°20' E 018°13'1 0.4
2016-Aug-21 08:33N 59°21' E 018°14'5 5.2
2016-Aug-21 07:33N 59°20' E 018°05'0 0.0
2016-Aug-21 06:33N 59°20' E 018°05'0 0.0
2016-Aug-21 05:33N 59°20' E 018°05'0 0.0
2016-Aug-21 04:33N 59°20' E 018°05'0 0.0
2016-Aug-21 03:33N 59°20' E 018°05'0 0.0
2016-Aug-21 02:33N 59°20' E 018°05'0 0.0
2016-Aug-21 01:33N 59°20' E 018°05'0 0.0
2016-Aug-21 00:33N 59°20' E 018°05'0 0.0
2016-Aug-20 23:33N 59°20' E 018°05'0 0.0
2016-Aug-20 22:33N 59°20' E 018°05'0 0.0
2016-Aug-20 21:33N 59°20' E 018°05'0 0.0
2016-Aug-20 20:33N 59°20' E 018°05'0 0.0
2016-Aug-20 19:33N 59°20' E 018°05'2 1.8
2016-Aug-20 18:33N 59°19' E 018°08'8 1.4
2016-Aug-20 12:19N 59°24' E 018°21'5 6.2
2016-Aug-20 11:33N 59°21' E 018°15'5 5.3
2016-Aug-20 10:33N 59°20' E 018°04'0 0.0
2016-Aug-20 09:33N 59°20' E 018°04'7 6.9
2016-Aug-20 08:33N 59°22' E 018°18'2 0.1
2016-Aug-19 16:34N 59°21' E 018°15'5 5.4
2016-Aug-19 15:33N 59°20' E 018°05'0 0.0
2016-Aug-19 14:33N 59°20' E 018°05'4 3.8
2016-Aug-19 13:33N 59°20' E 018°12'5 0.8
2016-Aug-19 07:16N 59°23' E 018°20'912.0
2016-Aug-19 06:34N 59°19' E 018°05'0 0.4
2016-Aug-19 05:33N 59°20' E 018°04'0 0.0
2016-Aug-19 04:33N 59°20' E 018°04'0 0.0
2016-Aug-19 03:33N 59°20' E 018°04'0 0.0
2016-Aug-19 02:33N 59°20' E 018°04'0 0.0
2016-Aug-19 01:33N 59°20' E 018°04'0 0.0
2016-Aug-19 00:33N 59°20' E 018°04'0 0.0
2016-Aug-18 23:33N 59°20' E 018°05'0 0.0
2016-Aug-18 22:33N 59°20' E 018°05'0 0.0
2016-Aug-18 21:33N 59°20' E 018°04'0 0.0
2016-Aug-18 20:34N 59°20' E 018°05'0 0.0
2016-Aug-18 19:33N 59°20' E 018°05'0 0.0
2016-Aug-18 18:33N 59°20' E 018°05'0 0.0
2016-Aug-18 17:33N 59°20' E 018°05'3 0.3
2016-Aug-18 07:05N 59°20' E 018°11'3 6.5
2016-Aug-18 06:33N 59°20' E 018°05'0 0.0
2016-Aug-18 05:33N 59°20' E 018°05'0 0.0
2016-Aug-18 04:34N 59°20' E 018°04'0 0.0
2016-Aug-18 03:34N 59°20' E 018°04'0 0.0
2016-Aug-18 02:33N 59°20' E 018°05'0 0.0
2016-Aug-18 01:34N 59°20' E 018°05'0 0.0
2016-Aug-18 00:33N 59°20' E 018°04'0 0.0
2016-Aug-17 23:34N 59°20' E 018°05'0 0.0
2016-Aug-17 22:34N 59°20' E 018°04'0 0.0
2016-Aug-17 21:33N 59°20' E 018°05'0 0.0
2016-Aug-17 20:34N 59°20' E 018°05'0 0.0
2016-Aug-17 19:33N 59°20' E 018°05'0 0.0
2016-Aug-17 18:34N 59°20' E 018°05'0 0.0
2016-Aug-17 17:33N 59°20' E 018°04'4 0.3
2016-Aug-17 07:06N 59°20' E 018°11'4 6.5
2016-Aug-17 06:33N 59°20' E 018°04'0 0.0
2016-Aug-17 05:33N 59°20' E 018°04'0 0.0
2016-Aug-17 04:34N 59°20' E 018°04'0 0.0
2016-Aug-17 03:34N 59°20' E 018°05'0 0.0
2016-Aug-17 02:33N 59°20' E 018°05'0 0.0
2016-Aug-17 01:33N 59°20' E 018°05'0 0.0
2016-Aug-17 00:33N 59°20' E 018°05'0 0.0
2016-Aug-16 23:33N 59°20' E 018°04'0 0.0
2016-Aug-16 22:33N 59°20' E 018°05'0 0.0
2016-Aug-16 21:33N 59°20' E 018°04'0 0.0
2016-Aug-16 20:33N 59°20' E 018°05'0 0.0
2016-Aug-16 19:34N 59°20' E 018°04'0 0.0
2016-Aug-16 18:33N 59°20' E 018°05'0 0.0
2016-Aug-16 17:33N 59°20' E 018°05'4 0.4
2016-Aug-16 07:12N 59°20' E 018°12'4 1.5
2016-Aug-16 04:34N 59°20' E 018°04'0 0.0
2016-Aug-16 03:33N 59°20' E 018°05'0 0.0
2016-Aug-16 02:33N 59°20' E 018°05'0 0.0
2016-Aug-16 01:33N 59°20' E 018°05'0 0.0
2016-Aug-16 00:33N 59°20' E 018°05'0 0.0
2016-Aug-15 23:33N 59°20' E 018°04'0 0.0
2016-Aug-15 22:33N 59°20' E 018°04'0 0.0
2016-Aug-15 21:33N 59°20' E 018°05'0 0.0
2016-Aug-15 20:33N 59°20' E 018°05'0 0.0
2016-Aug-15 19:33N 59°20' E 018°05'0 0.0
2016-Aug-15 18:33N 59°20' E 018°04'0 0.0
2016-Aug-15 17:33N 59°20' E 018°04'4 0.4
2016-Aug-15 07:08N 59°20' E 018°12'4 6.6
2016-Aug-15 06:34N 59°20' E 018°05'4 0.2
2016-Aug-14 15:08N 59°20' E 018°12'4 6.4
2016-Aug-14 14:33N 59°20' E 018°05'4 0.6
2016-Aug-14 07:23N 59°20' E 018°12'4 4.9
2016-Aug-14 06:34N 59°20' E 018°05'0 0.0
2016-Aug-14 04:34N 59°20' E 018°05'0 0.0
2016-Aug-14 03:34N 59°20' E 018°05'0 0.0
2016-Aug-14 02:34N 59°20' E 018°05'0 0.0
2016-Aug-14 01:32N 59°20' E 018°05'0 0.0
2016-Aug-14 00:34N 59°20' E 018°05'0 0.0
2016-Aug-13 23:32N 59°20' E 018°05'0 0.0
2016-Aug-13 22:34N 59°20' E 018°05'0 0.0
2016-Aug-13 21:34N 59°20' E 018°05'0 0.0
2016-Aug-13 20:34N 59°20' E 018°05'0 0.0
2016-Aug-13 19:33N 59°20' E 018°05'3 2.7
2016-Aug-13 18:25N 59°20' E 018°11'  

Dump ship's entire track history